Airport View

Enter AWOS ICAO identifier for current METAR.

ex. KFNL

KPKV 202315Z AUTO 15012G16KT 10SM SCT110 31/26 A2994 RMK AO2 T03050260

21 Sep 2019 01:17

Frequency: 118.275

Phone: 361-552-3060

Other Area AWOS: KVCT - KPSX - KRKP - KARM

TAF KVCT 202343Z 2100/2124 13012G22KT P6SM SCT060 BKN100 FM210300 15008KT P6SM SCT025 SCT250 TEMPO 2104/2108 BKN025 FM210800 16005G10KT P6SM BKN020 FM211500 15010G15KT P6SM VCSH BKN025 OVC250 FM211800 15014G18KT P6SM VCTS BKN035CB OVC200 PROB30 2118/2122 5SM TSRA OVC030CB FM212200 14012G20KT P6SM SCT040 BKN250